MiSS Juanita — WDC3039 — position and weather

sailwx.info

Track history (hours):
 
Tides and Currents Weather Stations Pressure Air Temp Water Temp Dewpoint Dewpoint Depression Visibility Wind Speed Wind Dir Waves Ship Positions

MiSS Juanita

Owner: CENTRAL BOAT RENTALS, BERWICK, LA. More information available from US FCC via Universal Licensing System and Coast Guard Vessel Documentation Center.

Last reported at 2017-Dec-11 17:00 UTC. Time now 2017-Dec-15 00:40 UTC.
Position N 30°05' W 093°17'.

Length 9 m; draft 2.2 m.

Type: Tug. MMSI: 367001890.

Date/timePositionNaut miles runAvg speedWind from/ knotsBaromVisibWave heightAir tempDewpointWater temp
2017-Dec-11 17:00N 30°05' W 093°17'1 2.7
2017-Dec-11 16:30N 30°06' W 093°18'0 0.0
2017-Dec-11 16:01N 30°06' W 093°18'0 0.0
2017-Dec-11 15:30N 30°06' W 093°18'0 0.0
2017-Dec-11 14:29N 30°06' W 093°18'1 1.3
2017-Dec-11 14:00N 30°06' W 093°19'3 5.2
2017-Dec-11 13:30N 30°04' W 093°21'3 6.0
2017-Dec-11 13:00N 30°04' W 093°24'4 7.0
2017-Dec-11 12:23N 30°04' W 093°29'4 6.9
2017-Dec-11 11:51N 30°04' W 093°33'6 6.4
2017-Dec-11 10:51N 30°04' W 093°41'2 0.0
2017-Dec-09 09:11N 30°03' W 093°43'1 4.8
2017-Dec-09 08:59N 30°04' W 093°42'2 4.8
2017-Dec-09 08:30N 30°04' W 093°39'2 4.5
2017-Dec-09 08:00N 30°04' W 093°36'2 4.2
2017-Dec-09 07:30N 30°04' W 093°34'2 4.5
2017-Dec-09 07:01N 30°04' W 093°31'2 4.6
2017-Dec-09 06:31N 30°04' W 093°29'2 4.6
2017-Dec-09 06:00N 30°04' W 093°26'2 4.7
2017-Dec-09 05:31N 30°04' W 093°23'2 4.5
2017-Dec-09 05:01N 30°04' W 093°21'2 5.0
2017-Dec-09 04:31N 30°06' W 093°19'1 2.9
2017-Dec-09 04:01N 30°05' W 093°18'1 1.9
2017-Dec-09 03:31N 30°05' W 093°17'0 0.0
2017-Dec-09 03:00N 30°05' W 093°17'0 0.4
2017-Dec-09 02:31N 30°04' W 093°16'2 3.7
2017-Dec-09 02:01N 30°03' W 093°16'2 3.7
2017-Dec-09 01:30N 30°02' W 093°14'2 4.1
2017-Dec-09 00:59N 29°60' W 093°13'3 4.6
2017-Dec-09 00:24N 29°58' W 093°11'43 4.2
2017-Dec-08 14:08N 29°51' W 092°22'1 4.3
2017-Dec-08 13:58N 29°51' W 092°21'2 4.4
2017-Dec-08 13:28N 29°50' W 092°18'2 4.4
2017-Dec-08 13:00N 29°49' W 092°17'2 4.6
2017-Dec-08 12:30N 29°48' W 092°14'2 3.1
2017-Dec-08 12:00N 29°47' W 092°13'2 3.3
2017-Dec-08 11:30N 29°47' W 092°11'2 3.5
2017-Dec-08 11:00N 29°47' W 092°09'2 4.1
2017-Dec-08 10:30N 29°48' W 092°07'3 4.0
2017-Dec-08 09:50N 29°49' W 092°04'65 3.8
2017-Dec-07 16:31N 29°32' W 090°51'0 5.7
2017-Dec-07 16:30N 29°32' W 090°51'2 4.5
2017-Dec-07 16:00N 29°32' W 090°49'2 4.7
2017-Dec-07 15:30N 29°32' W 090°46'2 4.3
2017-Dec-07 15:00N 29°34' W 090°44'1 2.2
2017-Dec-07 14:30N 29°34' W 090°43'2 4.3
2017-Dec-07 14:00N 29°36' W 090°43'2 3.3
2017-Dec-07 13:30N 29°36' W 090°41'2 4.4
2017-Dec-07 13:00N 29°35' W 090°38'2 4.4
2017-Dec-07 12:29N 29°35' W 090°36'  
Track history (hours):
 
Tides and Currents Weather Stations Pressure Air Temp Water Temp Dewpoint Dewpoint Depression Visibility Wind Speed Wind Dir Waves Ship Positions

MiSS Juanita

Owner: CENTRAL BOAT RENTALS, BERWICK, LA. More information available from US FCC via Universal Licensing System and Coast Guard Vessel Documentation Center.

Last reported at 2017-Dec-11 17:00 UTC. Time now 2017-Dec-15 00:40 UTC.
Position N 30°05' W 093°17'.

Length 9 m; draft 2.2 m.

Type: Tug. MMSI: 367001890.

Date/timePositionNaut miles runAvg speedWind from/ knotsBaromVisibWave heightAir tempDewpointWater temp
2017-Dec-11 17:00N 30°05' W 093°17'1 2.7
2017-Dec-11 16:30N 30°06' W 093°18'0 0.0
2017-Dec-11 16:01N 30°06' W 093°18'0 0.0
2017-Dec-11 15:30N 30°06' W 093°18'0 0.0
2017-Dec-11 14:29N 30°06' W 093°18'1 1.3
2017-Dec-11 14:00N 30°06' W 093°19'3 5.2
2017-Dec-11 13:30N 30°04' W 093°21'3 6.0
2017-Dec-11 13:00N 30°04' W 093°24'4 7.0
2017-Dec-11 12:23N 30°04' W 093°29'4 6.9
2017-Dec-11 11:51N 30°04' W 093°33'6 6.4
2017-Dec-11 10:51N 30°04' W 093°41'2 0.0
2017-Dec-09 09:11N 30°03' W 093°43'1 4.8
2017-Dec-09 08:59N 30°04' W 093°42'2 4.8
2017-Dec-09 08:30N 30°04' W 093°39'2 4.5
2017-Dec-09 08:00N 30°04' W 093°36'2 4.2
2017-Dec-09 07:30N 30°04' W 093°34'2 4.5
2017-Dec-09 07:01N 30°04' W 093°31'2 4.6
2017-Dec-09 06:31N 30°04' W 093°29'2 4.6
2017-Dec-09 06:00N 30°04' W 093°26'2 4.7
2017-Dec-09 05:31N 30°04' W 093°23'2 4.5
2017-Dec-09 05:01N 30°04' W 093°21'2 5.0
2017-Dec-09 04:31N 30°06' W 093°19'1 2.9
2017-Dec-09 04:01N 30°05' W 093°18'1 1.9
2017-Dec-09 03:31N 30°05' W 093°17'0 0.0
2017-Dec-09 03:00N 30°05' W 093°17'0 0.4
2017-Dec-09 02:31N 30°04' W 093°16'2 3.7
2017-Dec-09 02:01N 30°03' W 093°16'2 3.7
2017-Dec-09 01:30N 30°02' W 093°14'2 4.1
2017-Dec-09 00:59N 29°60' W 093°13'3 4.6
2017-Dec-09 00:24N 29°58' W 093°11'43 4.2
2017-Dec-08 14:08N 29°51' W 092°22'1 4.3
2017-Dec-08 13:58N 29°51' W 092°21'2 4.4
2017-Dec-08 13:28N 29°50' W 092°18'2 4.4
2017-Dec-08 13:00N 29°49' W 092°17'2 4.6
2017-Dec-08 12:30N 29°48' W 092°14'2 3.1
2017-Dec-08 12:00N 29°47' W 092°13'2 3.3
2017-Dec-08 11:30N 29°47' W 092°11'2 3.5
2017-Dec-08 11:00N 29°47' W 092°09'2 4.1
2017-Dec-08 10:30N 29°48' W 092°07'3 4.0
2017-Dec-08 09:50N 29°49' W 092°04'65 3.8
2017-Dec-07 16:31N 29°32' W 090°51'0 5.7
2017-Dec-07 16:30N 29°32' W 090°51'2 4.5
2017-Dec-07 16:00N 29°32' W 090°49'2 4.7
2017-Dec-07 15:30N 29°32' W 090°46'2 4.3
2017-Dec-07 15:00N 29°34' W 090°44'1 2.2
2017-Dec-07 14:30N 29°34' W 090°43'2 4.3
2017-Dec-07 14:00N 29°36' W 090°43'2 3.3
2017-Dec-07 13:30N 29°36' W 090°41'2 4.4
2017-Dec-07 13:00N 29°35' W 090°38'2 4.4
2017-Dec-07 12:29N 29°35' W 090°36'  

Dump ship's entire track history